createdAt,value
2018-05-02T00:00:59.714Z,964.37
2018-05-02T00:01:59.661Z,964.38
2018-05-02T00:02:59.654Z,964.36
2018-05-02T00:03:59.560Z,964.37
2018-05-02T00:04:59.502Z,964.34
2018-05-02T00:05:59.446Z,964.35
2018-05-02T00:06:59.397Z,964.32
2018-05-02T00:07:59.380Z,964.33
2018-05-02T00:08:59.294Z,964.32
2018-05-02T00:09:59.244Z,964.33
2018-05-02T00:10:59.198Z,964.32
2018-05-02T00:11:59.175Z,964.32
2018-05-02T00:12:59.077Z,964.28
2018-05-02T00:13:59.024Z,964.28
2018-05-02T00:14:58.972Z,964.33
2018-05-02T00:15:58.919Z,964.26
2018-05-02T00:16:58.923Z,964.31
2018-05-02T00:17:58.840Z,964.25
2018-05-02T00:18:58.757Z,964.33
2018-05-02T00:19:58.704Z,964.32
2018-05-02T00:20:59.668Z,964.32
2018-05-02T00:21:58.633Z,964.34
2018-05-02T00:22:58.548Z,964.35
2018-05-02T00:23:58.516Z,964.34
2018-05-02T00:24:58.440Z,964.29
2018-05-02T00:25:58.395Z,964.33
2018-05-02T00:26:58.332Z,964.34
2018-05-02T00:27:58.333Z,964.33
2018-05-02T00:28:58.226Z,964.31
2018-05-02T00:29:58.179Z,964.33
2018-05-02T00:30:58.118Z,964.35
2018-05-02T00:31:58.070Z,964.32
2018-05-02T00:32:58.050Z,964.34
2018-05-02T00:33:57.995Z,964.32
2018-05-02T00:34:57.906Z,964.30
2018-05-02T00:35:57.852Z,964.28
2018-05-02T00:36:57.807Z,964.27
2018-05-02T00:37:57.748Z,964.26
2018-05-02T00:38:57.751Z,964.27
2018-05-02T00:39:57.639Z,964.24
2018-05-02T00:40:57.582Z,964.22
2018-05-02T00:41:57.528Z,964.26
2018-05-02T00:42:57.480Z,964.20
2018-05-02T00:43:57.475Z,964.22
2018-05-02T00:44:57.382Z,964.21
2018-05-02T00:45:57.317Z,964.19
2018-05-02T00:46:57.267Z,964.20
2018-05-02T00:47:57.212Z,964.17
2018-05-02T00:48:57.273Z,964.22
2018-05-02T00:49:57.105Z,964.19
2018-05-02T00:50:57.089Z,964.19
2018-05-02T00:51:57.004Z,964.17
2018-05-02T00:52:57.017Z,964.20
2018-05-02T00:53:56.891Z,964.17
2018-05-02T00:54:56.837Z,964.18
2018-05-02T00:55:56.829Z,964.17
2018-05-02T00:56:56.735Z,964.13
2018-05-02T00:57:56.677Z,964.19
2018-05-02T00:58:56.624Z,964.19
2018-05-02T00:59:56.574Z,964.17
2018-05-02T01:00:56.655Z,964.16
2018-05-02T01:01:56.467Z,964.13
2018-05-02T01:02:56.419Z,964.15
2018-05-02T01:03:56.354Z,964.10
2018-05-02T01:04:56.324Z,964.12
2018-05-02T01:05:56.285Z,964.14
2018-05-02T01:06:56.193Z,964.18
2018-05-02T01:07:56.143Z,964.16
2018-05-02T01:08:56.089Z,964.10
2018-05-02T01:09:56.079Z,964.19
2018-05-02T01:10:55.988Z,964.15
2018-05-02T01:11:55.925Z,964.12
2018-05-02T01:12:55.877Z,964.17
2018-05-02T01:13:55.827Z,964.12
2018-05-02T01:14:55.802Z,964.11
2018-05-02T01:15:55.716Z,964.11
2018-05-02T01:16:55.697Z,964.09
2018-05-02T01:17:55.607Z,964.14
2018-05-02T01:18:55.552Z,964.10
2018-05-02T01:19:55.547Z,964.14
2018-05-02T01:20:55.480Z,964.14
2018-05-02T01:21:55.407Z,964.16
2018-05-02T01:22:55.350Z,964.12
2018-05-02T01:23:55.286Z,964.14
2018-05-02T01:24:55.239Z,964.13
2018-05-02T01:25:55.208Z,964.11
2018-05-02T01:26:55.122Z,964.12
2018-05-02T01:27:55.100Z,964.13
2018-05-02T01:28:55.016Z,964.11
2018-05-02T01:29:54.960Z,964.10
2018-05-02T01:30:54.911Z,964.10
2018-05-02T01:31:54.853Z,964.12
2018-05-02T01:32:54.834Z,964.13
2018-05-02T01:33:54.747Z,964.12
2018-05-02T01:34:54.711Z,964.12
2018-05-02T01:35:54.652Z,964.14
2018-05-02T01:36:54.585Z,964.13
2018-05-02T01:37:54.567Z,964.14
2018-05-02T01:38:54.475Z,964.14
2018-05-02T01:39:54.460Z,964.13
2018-05-02T01:40:54.373Z,964.11
2018-05-02T01:41:54.314Z,964.11
2018-05-02T01:42:54.262Z,964.13
2018-05-02T01:43:54.211Z,964.11
2018-05-02T01:44:54.187Z,964.11
2018-05-02T01:45:54.147Z,964.09
2018-05-02T01:46:54.082Z,964.07
2018-05-02T01:47:53.996Z,964.08
2018-05-02T01:48:53.941Z,964.07
2018-05-02T01:49:53.885Z,964.05
2018-05-02T01:50:53.838Z,964.09
2018-05-02T01:51:53.812Z,964.08
2018-05-02T01:52:53.734Z,964.09
2018-05-02T01:53:53.669Z,964.04
2018-05-02T01:54:53.616Z,964.06
2018-05-02T01:55:53.566Z,964.01
2018-05-02T01:56:53.553Z,964.03
2018-05-02T01:57:53.458Z,964.04
2018-05-02T01:58:53.406Z,964.11
2018-05-02T01:59:53.383Z,964.10
2018-05-02T02:00:53.299Z,964.13
2018-05-02T02:01:53.249Z,964.12
2018-05-02T02:02:53.185Z,964.15
2018-05-02T02:03:53.135Z,964.10
2018-05-02T02:04:53.123Z,964.08
2018-05-02T02:05:53.024Z,964.09
2018-05-02T02:06:52.973Z,964.07
2018-05-02T02:07:52.920Z,964.11
2018-05-02T02:08:52.994Z,964.08
2018-05-02T02:09:52.812Z,964.13
2018-05-02T02:10:52.755Z,964.08
2018-05-02T02:11:52.713Z,964.10
2018-05-02T02:12:52.653Z,964.08
2018-05-02T02:13:52.650Z,964.09
2018-05-02T02:14:52.551Z,964.10
2018-05-02T02:15:52.565Z,964.09
2018-05-02T02:16:52.431Z,964.07
2018-05-02T02:17:52.384Z,964.08
2018-05-02T02:18:52.386Z,964.06
2018-05-02T02:19:52.272Z,964.07
2018-05-02T02:20:52.213Z,964.05
2018-05-02T02:21:52.163Z,964.02
2018-05-02T02:22:52.107Z,963.96
2018-05-02T02:23:52.098Z,963.96
2018-05-02T02:24:52.003Z,963.91
2018-05-02T02:25:51.950Z,963.91
2018-05-02T02:26:51.896Z,963.93
2018-05-02T02:27:51.840Z,963.92
2018-05-02T02:28:51.820Z,963.93
2018-05-02T02:29:51.729Z,963.91
2018-05-02T02:30:51.719Z,963.93
2018-05-02T02:31:51.625Z,963.92
2018-05-02T02:32:51.574Z,963.92
2018-05-02T02:33:51.521Z,963.91
2018-05-02T02:34:51.496Z,963.92
2018-05-02T02:35:51.411Z,963.95
2018-05-02T02:36:51.362Z,963.96
2018-05-02T02:37:51.304Z,963.94
2018-05-02T02:38:51.283Z,963.90
2018-05-02T02:39:51.195Z,963.97
2018-05-02T02:40:51.149Z,963.94
2018-05-02T02:41:51.093Z,963.97
2018-05-02T02:42:51.029Z,963.98
2018-05-02T02:43:51.015Z,964.03
2018-05-02T02:44:50.958Z,964.06
2018-05-02T02:45:50.873Z,964.03
2018-05-02T02:46:50.859Z,964.10
2018-05-02T02:47:50.767Z,964.10
2018-05-02T02:48:50.707Z,964.08
2018-05-02T02:49:50.657Z,964.10
2018-05-02T02:50:50.633Z,964.07
2018-05-02T02:51:50.546Z,964.02
2018-05-02T02:52:50.535Z,964.01
2018-05-02T02:53:50.439Z,964.03
2018-05-02T02:54:50.383Z,964.01
2018-05-02T02:55:50.331Z,964.02
2018-05-02T02:56:50.274Z,964.00
2018-05-02T02:57:50.250Z,964.00
2018-05-02T02:58:50.177Z,964.00
2018-05-02T02:59:50.112Z,963.99
2018-05-02T03:00:50.058Z,963.96
2018-05-02T03:01:50.046Z,963.98
2018-05-02T03:02:49.988Z,963.92
2018-05-02T03:03:49.899Z,963.93
2018-05-02T03:04:49.848Z,963.95
2018-05-02T03:05:49.826Z,963.97
2018-05-02T03:06:49.743Z,963.99
2018-05-02T03:07:49.682Z,963.96
2018-05-02T03:08:49.697Z,964.02
2018-05-02T03:09:49.578Z,964.02
2018-05-02T03:10:49.524Z,963.95
2018-05-02T03:11:49.470Z,963.92
2018-05-02T03:12:49.415Z,963.86
2018-05-02T03:13:49.397Z,963.79
2018-05-02T03:14:49.307Z,963.75
2018-05-02T03:15:49.252Z,963.76
2018-05-02T03:16:49.210Z,963.73
2018-05-02T03:17:49.150Z,963.73
2018-05-02T03:18:49.126Z,963.70
2018-05-02T03:19:49.038Z,963.70
2018-05-02T03:20:48.986Z,963.70
2018-05-02T03:21:48.936Z,963.73
2018-05-02T03:22:48.878Z,963.77
2018-05-02T03:23:48.860Z,963.76
2018-05-02T03:24:48.773Z,963.74
2018-05-02T03:25:48.718Z,963.71
2018-05-02T03:26:48.668Z,963.71
2018-05-02T03:27:48.642Z,963.70
2018-05-02T03:28:48.557Z,963.71
2018-05-02T03:29:48.512Z,963.71
2018-05-02T03:30:48.482Z,963.72
2018-05-02T03:31:48.397Z,963.64
2018-05-02T03:32:48.338Z,963.62
2018-05-02T03:33:48.293Z,963.62
2018-05-02T03:34:48.232Z,963.59
2018-05-02T03:35:48.208Z,963.60
2018-05-02T03:36:48.171Z,963.57
2018-05-02T03:37:48.111Z,963.57
2018-05-02T03:38:48.019Z,963.59
2018-05-02T03:39:47.961Z,963.54
2018-05-02T03:40:47.914Z,963.53
2018-05-02T03:41:47.856Z,963.59
2018-05-02T03:42:47.837Z,963.53
2018-05-02T03:43:47.746Z,963.55
2018-05-02T03:44:47.693Z,963.53
2018-05-02T03:45:47.639Z,963.52
2018-05-02T03:46:47.618Z,963.54
2018-05-02T03:47:47.534Z,963.52
2018-05-02T03:48:47.475Z,963.54
2018-05-02T03:49:47.469Z,963.54
2018-05-02T03:50:47.374Z,963.55
2018-05-02T03:51:47.312Z,963.56
2018-05-02T03:52:47.260Z,963.52
2018-05-02T03:53:47.210Z,963.51
2018-05-02T03:54:47.202Z,963.49
2018-05-02T03:55:47.103Z,963.53
2018-05-02T03:56:47.047Z,963.53
2018-05-02T03:57:47.025Z,963.53
2018-05-02T03:58:46.943Z,963.59
2018-05-02T03:59:46.975Z,963.59
2018-05-02T04:00:46.877Z,963.57
2018-05-02T04:01:46.784Z,963.62
2018-05-02T04:02:46.729Z,963.54
2018-05-02T04:03:46.676Z,963.55
2018-05-02T04:04:46.622Z,963.52
2018-05-02T04:05:46.595Z,963.55
2018-05-02T04:06:46.510Z,963.56
2018-05-02T04:07:46.496Z,963.57
2018-05-02T04:08:46.399Z,963.56
2018-05-02T04:09:46.348Z,963.59
2018-05-02T04:10:46.294Z,963.61
2018-05-02T04:11:46.240Z,963.60
2018-05-02T04:12:46.223Z,963.61
2018-05-02T04:13:46.131Z,963.66
2018-05-02T04:14:46.078Z,963.67
2018-05-02T04:15:46.024Z,963.64
2018-05-02T04:16:45.978Z,963.67
2018-05-02T04:17:45.963Z,963.64
2018-05-02T04:18:46.929Z,963.64
2018-05-02T04:19:45.809Z,963.60
2018-05-02T04:20:45.755Z,963.61
2018-05-02T04:21:45.703Z,963.61
2018-05-02T04:22:45.681Z,963.61
2018-05-02T04:23:45.628Z,963.63
2018-05-02T04:24:45.544Z,963.63
2018-05-02T04:25:45.495Z,963.64
2018-05-02T04:26:45.433Z,963.66
2018-05-02T04:27:45.395Z,963.63
2018-05-02T04:28:45.395Z,963.60
2018-05-02T04:29:45.289Z,963.63
2018-05-02T04:30:45.227Z,963.60
2018-05-02T04:31:45.168Z,963.62
2018-05-02T04:32:45.117Z,963.63
2018-05-02T04:33:45.100Z,963.63
2018-05-02T04:34:45.025Z,963.68
2018-05-02T04:35:44.989Z,963.64
2018-05-02T04:36:44.904Z,963.71
2018-05-02T04:37:44.885Z,963.67
2018-05-02T04:38:44.794Z,963.71
2018-05-02T04:39:44.740Z,963.70
2018-05-02T04:40:44.691Z,963.76
2018-05-02T04:41:44.671Z,963.72
2018-05-02T04:42:44.580Z,963.72
2018-05-02T04:43:44.543Z,963.68
2018-05-02T04:44:44.473Z,963.71
2018-05-02T04:45:44.423Z,963.71
2018-05-02T04:46:44.403Z,963.71
2018-05-02T04:47:44.315Z,963.76
2018-05-02T04:48:44.260Z,963.79
2018-05-02T04:49:44.215Z,963.85
2018-05-02T04:50:44.156Z,963.82
2018-05-02T04:51:44.131Z,963.86
2018-05-02T04:52:44.085Z,963.87
2018-05-02T04:53:43.989Z,963.88
2018-05-02T04:54:43.943Z,963.89
2018-05-02T04:55:43.926Z,963.90
2018-05-02T04:56:43.869Z,963.92
2018-05-02T04:57:43.780Z,963.90
2018-05-02T04:58:43.725Z,963.96
2018-05-02T04:59:43.669Z,963.92
2018-05-02T05:00:43.619Z,963.92
2018-05-02T05:01:43.600Z,963.91
2018-05-02T05:02:43.512Z,963.89
2018-05-02T05:03:43.463Z,963.89
2018-05-02T05:04:43.408Z,963.92
2018-05-02T05:05:43.354Z,963.89
2018-05-02T05:06:43.399Z,963.93
2018-05-02T05:07:43.250Z,963.88
2018-05-02T05:08:43.195Z,963.94
2018-05-02T05:09:43.174Z,963.92
2018-05-02T05:10:43.107Z,963.95
2018-05-02T05:11:43.043Z,963.92
2018-05-02T05:12:42.982Z,963.95
2018-05-02T05:13:42.965Z,963.96
2018-05-02T05:14:42.881Z,963.96
2018-05-02T05:15:42.864Z,963.94
2018-05-02T05:16:42.781Z,963.94
2018-05-02T05:17:42.716Z,964.01
2018-05-02T05:18:42.668Z,964.02
2018-05-02T05:19:42.614Z,964.02
2018-05-02T05:20:42.593Z,963.99
2018-05-02T05:21:42.505Z,963.98
2018-05-02T05:22:42.462Z,963.98
2018-05-02T05:23:42.411Z,963.97
2018-05-02T05:24:42.383Z,963.96
2018-05-02T05:25:42.296Z,963.99
2018-05-02T05:26:42.248Z,963.97
2018-05-02T05:27:42.233Z,963.96
2018-05-02T05:28:42.138Z,963.99
2018-05-02T05:29:42.119Z,964.00
2018-05-02T05:30:42.037Z,964.01
2018-05-02T05:31:41.984Z,964.00
2018-05-02T05:32:41.961Z,964.02
2018-05-02T05:33:41.876Z,964.03
2018-05-02T05:34:41.866Z,963.95
2018-05-02T05:35:41.778Z,963.93
2018-05-02T05:36:41.721Z,963.92
2018-05-02T05:37:41.683Z,963.94
2018-05-02T05:38:41.618Z,963.89
2018-05-02T05:39:41.600Z,963.90
2018-05-02T05:40:41.507Z,963.91
2018-05-02T05:41:41.500Z,963.88
2018-05-02T05:42:41.407Z,963.91
2018-05-02T05:43:41.530Z,963.88
2018-05-02T05:44:41.300Z,963.90
2018-05-02T05:45:41.258Z,963.90
2018-05-02T05:46:41.233Z,963.86
2018-05-02T05:47:41.149Z,963.92
2018-05-02T05:48:41.158Z,963.96
2018-05-02T05:49:41.042Z,963.97
2018-05-02T05:50:40.987Z,964.01
2018-05-02T05:51:40.935Z,964.00
2018-05-02T05:52:40.882Z,964.03
2018-05-02T05:53:40.876Z,964.02
2018-05-02T05:54:40.802Z,964.07
2018-05-02T05:55:40.766Z,964.02
2018-05-02T05:56:40.684Z,964.06
2018-05-02T05:57:40.625Z,964.08
2018-05-02T05:58:40.581Z,964.08
2018-05-02T05:59:40.547Z,964.07
2018-05-02T06:00:40.510Z,964.05
2018-05-02T06:01:40.494Z,964.05
2018-05-02T06:02:40.403Z,964.06
2018-05-02T06:03:40.316Z,964.04
2018-05-02T06:04:40.299Z,964.08
2018-05-02T06:05:40.211Z,964.03
2018-05-02T06:06:40.271Z,964.06
2018-05-02T06:07:40.116Z,964.05
2018-05-02T06:08:40.060Z,963.99
2018-05-02T06:09:40.012Z,964.00
2018-05-02T06:10:39.988Z,963.97
2018-05-02T06:11:39.901Z,963.95
2018-05-02T06:12:39.885Z,963.95
2018-05-02T06:13:39.805Z,963.96
2018-05-02T06:14:39.784Z,963.97
2018-05-02T06:15:39.702Z,963.96
2018-05-02T06:16:39.677Z,963.95
2018-05-02T06:17:39.593Z,963.95
2018-05-02T06:18:39.639Z,963.99
2018-05-02T06:19:39.491Z,963.96
2018-05-02T06:20:39.442Z,963.96
2018-05-02T06:21:39.427Z,963.92
2018-05-02T06:22:39.344Z,963.99
2018-05-02T06:23:39.288Z,963.99
2018-05-02T06:24:39.272Z,964.02
2018-05-02T06:25:39.186Z,964.06
2018-05-02T06:26:39.134Z,964.09
2018-05-02T06:27:39.088Z,964.10
2018-05-02T06:28:39.068Z,964.05
2018-05-02T06:29:38.986Z,964.09
2018-05-02T06:30:38.929Z,964.07
2018-05-02T06:31:38.896Z,964.06
2018-05-02T06:32:38.828Z,964.09
2018-05-02T06:33:38.812Z,964.13
2018-05-02T06:34:38.727Z,964.14
2018-05-02T06:35:38.675Z,964.13
2018-05-02T06:36:38.630Z,964.15
2018-05-02T06:37:38.668Z,964.16
2018-05-02T06:38:38.568Z,964.13
2018-05-02T06:39:38.511Z,964.10
2018-05-02T06:40:38.428Z,964.13
2018-05-02T06:41:38.378Z,964.08
2018-05-02T06:42:38.322Z,964.09
2018-05-02T06:43:38.309Z,964.10
2018-05-02T06:44:38.257Z,964.12
2018-05-02T06:45:38.188Z,964.12
2018-05-02T06:46:38.141Z,964.14
2018-05-02T06:47:38.070Z,964.14
2018-05-02T06:48:38.035Z,964.16
2018-05-02T06:49:38.007Z,964.23
2018-05-02T06:50:37.919Z,964.17
2018-05-02T06:51:37.873Z,964.16
2018-05-02T06:52:37.905Z,964.17
2018-05-02T06:53:37.770Z,964.17
2018-05-02T06:54:37.793Z,964.19
2018-05-02T06:55:37.673Z,964.14
2018-05-02T06:56:37.621Z,964.14
2018-05-02T06:57:55.796Z,964.09
2018-05-02T06:58:37.521Z,964.08
2018-05-02T06:59:37.474Z,964.08
2018-05-02T07:00:37.420Z,964.01
2018-05-02T07:01:37.384Z,963.93
2018-05-02T07:02:37.324Z,963.95
2018-05-02T07:03:37.358Z,963.95
2018-05-02T07:04:37.230Z,963.90
2018-05-02T07:05:37.227Z,963.88
2018-05-02T07:06:37.146Z,963.92
2018-05-02T07:07:37.122Z,963.92
2018-05-02T07:08:37.060Z,963.92
2018-05-02T07:09:36.988Z,963.91
2018-05-02T07:10:36.969Z,963.94
2018-05-02T07:11:36.924Z,963.97
2018-05-02T07:12:36.860Z,963.98
2018-05-02T07:13:36.818Z,964.00
2018-05-02T07:14:36.727Z,964.00
2018-05-02T07:15:36.672Z,964.03
2018-05-02T07:16:36.662Z,964.03
2018-05-02T07:17:36.576Z,964.03
2018-05-02T07:18:36.529Z,963.95
2018-05-02T07:19:36.477Z,963.91
2018-05-02T07:20:36.793Z,963.90
2018-05-02T07:21:36.402Z,963.89
2018-05-02T07:22:36.369Z,963.86
2018-05-02T07:23:36.286Z,963.89
2018-05-02T07:24:36.230Z,963.93
2018-05-02T07:25:38.191Z,963.91
2018-05-02T07:26:36.181Z,963.91
2018-05-02T07:27:36.096Z,963.95
2018-05-02T07:28:36.050Z,963.97
2018-05-02T07:29:35.996Z,963.97
2018-05-02T07:30:35.952Z,963.93
2018-05-02T07:31:35.919Z,963.95
2018-05-02T07:32:35.945Z,963.97
2018-05-02T07:33:35.791Z,963.96
2018-05-02T07:34:35.777Z,964.01
2018-05-02T07:35:35.699Z,964.01
2018-05-02T07:36:35.645Z,964.01
2018-05-02T07:37:35.601Z,964.03
2018-05-02T07:38:35.579Z,964.00
2018-05-02T07:39:35.507Z,963.98
2018-05-02T07:40:35.509Z,964.01
2018-05-02T07:41:35.417Z,964.01
2018-05-02T07:42:35.359Z,963.98
2018-05-02T07:43:35.305Z,963.95
2018-05-02T07:44:35.272Z,963.94
2018-05-02T07:45:35.250Z,963.94
2018-05-02T07:46:35.163Z,963.94
2018-05-02T07:47:35.149Z,963.90
2018-05-02T07:48:35.141Z,963.90
2018-05-02T07:49:35.016Z,963.88
2018-05-02T07:50:34.964Z,963.85
2018-05-02T07:51:34.952Z,963.86
2018-05-02T07:52:34.867Z,963.86
2018-05-02T07:53:34.820Z,963.85
2018-05-02T07:54:34.778Z,963.84
2018-05-02T07:55:34.725Z,963.84
2018-05-02T07:56:34.795Z,963.86
2018-05-02T07:57:34.638Z,963.81
2018-05-02T07:58:34.577Z,963.77
2018-05-02T07:59:34.568Z,963.75
2018-05-02T08:00:34.518Z,963.73
2018-05-02T08:01:34.437Z,963.69
2018-05-02T08:02:34.395Z,963.75
2018-05-02T08:03:34.346Z,963.74
2018-05-02T08:04:34.302Z,963.78
2018-05-02T08:05:34.294Z,963.76
2018-05-02T08:06:34.195Z,963.79
2018-05-02T08:07:34.158Z,963.68
2018-05-02T08:08:34.100Z,963.68
2018-05-02T08:09:34.051Z,963.66
2018-05-02T08:10:34.049Z,963.67
2018-05-02T08:11:33.956Z,963.64
2018-05-02T08:12:33.910Z,963.65
2018-05-02T08:13:33.864Z,963.65
2018-05-02T08:14:33.817Z,963.63
2018-05-02T08:15:33.818Z,963.60
2018-05-02T08:16:33.805Z,963.59
2018-05-02T08:17:33.682Z,963.58
2018-05-02T08:18:33.670Z,963.54
2018-05-02T08:19:33.610Z,963.53
2018-05-02T08:20:33.572Z,963.52
2018-05-02T08:21:33.479Z,963.52
2018-05-02T08:22:33.444Z,963.51
2018-05-02T08:23:33.457Z,963.52
2018-05-02T08:24:33.346Z,963.52
2018-05-02T08:25:33.297Z,963.49
2018-05-02T08:26:33.253Z,963.49
2018-05-02T08:27:33.239Z,963.47
2018-05-02T08:28:33.227Z,963.45
2018-05-02T08:29:33.112Z,963.46
2018-05-02T08:30:33.068Z,963.43
2018-05-02T08:31:33.014Z,963.47
2018-05-02T08:32:33.015Z,963.42
2018-05-02T08:33:32.932Z,963.45
2018-05-02T08:34:32.894Z,963.44
2018-05-02T08:35:32.872Z,963.46
2018-05-02T08:36:32.781Z,963.47
2018-05-02T08:37:32.739Z,963.47
2018-05-02T08:38:32.692Z,963.45
2018-05-02T08:39:32.688Z,963.48
2018-05-02T08:40:32.599Z,963.49
2018-05-02T08:41:33.626Z,963.50
2018-05-02T08:42:32.540Z,963.48
2018-05-02T08:43:32.462Z,963.50
2018-05-02T08:44:32.451Z,963.50
2018-05-02T08:45:32.372Z,963.49
2018-05-02T08:46:32.362Z,963.55
2018-05-02T08:47:32.281Z,963.50
2018-05-02T08:48:32.285Z,963.49
2018-05-02T08:49:32.217Z,963.50
2018-05-02T08:50:32.172Z,963.45
2018-05-02T08:51:32.156Z,963.48
2018-05-02T08:52:32.100Z,963.46
2018-05-02T08:53:32.021Z,963.44
2018-05-02T08:54:31.967Z,963.46
2018-05-02T08:55:31.919Z,963.46
2018-05-02T08:56:31.911Z,963.44
2018-05-02T08:57:31.960Z,963.48
2018-05-02T08:58:31.794Z,963.49
2018-05-02T08:59:31.733Z,963.46
2018-05-02T09:00:31.694Z,963.48
2018-05-02T09:01:31.681Z,963.47
2018-05-02T09:02:31.603Z,963.42
2018-05-02T09:03:31.557Z,963.43
2018-05-02T09:04:31.509Z,963.43
2018-05-02T09:05:31.499Z,963.43
2018-05-02T09:06:31.424Z,963.40
2018-05-02T09:07:31.379Z,963.45
2018-05-02T09:08:31.363Z,963.50
2018-05-02T09:09:31.296Z,963.44
2018-05-02T09:10:31.239Z,963.47
2018-05-02T09:11:31.193Z,963.45
2018-05-02T09:12:31.154Z,963.43
2018-05-02T09:13:31.146Z,963.43
2018-05-02T09:14:31.064Z,963.43
2018-05-02T09:15:31.099Z,963.48
2018-05-02T09:16:30.983Z,963.45
2018-05-02T09:17:30.946Z,963.40
2018-05-02T09:18:30.917Z,963.37
2018-05-02T09:19:30.868Z,963.36
2018-05-02T09:20:30.794Z,963.33
2018-05-02T09:21:30.745Z,963.30
2018-05-02T09:22:30.711Z,963.26
2018-05-02T09:23:30.666Z,963.26
2018-05-02T09:24:30.659Z,963.24
2018-05-02T09:25:30.572Z,963.25
2018-05-02T09:26:30.523Z,963.20
2018-05-02T09:27:30.489Z,963.20
2018-05-02T09:28:30.431Z,963.20
2018-05-02T09:29:30.421Z,963.20
2018-05-02T09:30:30.343Z,963.17
2018-05-02T09:31:30.322Z,963.14
2018-05-02T09:32:30.297Z,963.17
2018-05-02T09:33:30.213Z,963.17
2018-05-02T09:34:30.165Z,963.15
2018-05-02T09:35:30.123Z,963.15
2018-05-02T09:36:30.118Z,963.17
2018-05-02T09:37:30.035Z,963.18
2018-05-02T09:38:29.999Z,963.17
2018-05-02T09:39:29.959Z,963.15
2018-05-02T09:40:29.897Z,963.10
2018-05-02T09:41:29.896Z,963.11
2018-05-02T09:42:29.811Z,963.08
2018-05-02T09:43:29.781Z,963.09
2018-05-02T09:44:29.756Z,963.07
2018-05-02T09:45:29.677Z,963.08
2018-05-02T09:46:29.633Z,963.08
2018-05-02T09:47:29.594Z,963.09
2018-05-02T09:48:29.547Z,963.13
2018-05-02T09:49:29.551Z,963.07
2018-05-02T09:50:29.491Z,963.08
2018-05-02T09:51:29.411Z,963.04
2018-05-02T09:52:29.369Z,963.02
2018-05-02T09:53:29.336Z,963.02
2018-05-02T09:54:29.323Z,963.04
2018-05-02T09:55:29.237Z,963.00
2018-05-02T09:56:29.191Z,963.03
2018-05-02T09:57:29.152Z,963.02
2018-05-02T09:58:29.105Z,963.04
2018-05-02T09:59:29.097Z,963.01
2018-05-02T10:00:29.019Z,963.01
2018-05-02T10:01:29.007Z,962.99
2018-05-02T10:02:28.929Z,962.98
2018-05-02T10:03:28.936Z,963.00
2018-05-02T10:04:28.905Z,963.03
2018-05-02T10:05:28.802Z,963.02
2018-05-02T10:06:28.759Z,963.01
2018-05-02T10:07:28.724Z,962.99
2018-05-02T10:08:28.715Z,963.03
2018-05-02T10:09:28.624Z,963.00
2018-05-02T10:10:28.580Z,962.96
2018-05-02T10:11:28.537Z,962.94
2018-05-02T10:12:28.510Z,962.96
2018-05-02T10:13:28.496Z,962.94
2018-05-02T10:14:28.404Z,962.94
2018-05-02T10:15:28.354Z,962.98
2018-05-02T10:16:28.318Z,962.96
2018-05-02T10:17:28.270Z,962.94
2018-05-02T10:18:28.347Z,962.95
2018-05-02T10:19:28.242Z,962.91
2018-05-02T10:20:28.135Z,962.93
2018-05-02T10:21:28.100Z,962.96
2018-05-02T10:22:28.057Z,962.93
2018-05-02T10:23:28.003Z,962.93
2018-05-02T10:24:27.990Z,962.94
2018-05-02T10:25:27.913Z,962.90
2018-05-02T10:26:27.869Z,962.93
2018-05-02T10:27:27.831Z,962.93
2018-05-02T10:28:27.794Z,962.88
2018-05-02T10:29:27.801Z,962.87
2018-05-02T10:30:27.752Z,962.85
2018-05-02T10:31:27.657Z,962.86
2018-05-02T10:32:27.606Z,962.86
2018-05-02T10:33:27.565Z,962.86
2018-05-02T10:34:27.555Z,962.87
2018-05-02T10:35:27.524Z,962.86
2018-05-02T10:36:27.435Z,962.85
2018-05-02T10:37:27.398Z,962.82
2018-05-02T10:38:27.348Z,962.85
2018-05-02T10:39:27.301Z,962.82
2018-05-02T10:40:27.309Z,962.86
2018-05-02T10:41:27.222Z,962.80
2018-05-02T10:42:27.167Z,962.82
2018-05-02T10:43:27.132Z,962.80
2018-05-02T10:44:27.077Z,962.81
2018-05-02T10:45:27.085Z,962.81
2018-05-02T10:46:27.002Z,962.85
2018-05-02T10:47:26.945Z,962.81
2018-05-02T10:48:26.909Z,962.79
2018-05-02T10:49:26.862Z,962.83
2018-05-02T10:50:26.933Z,962.79
2018-05-02T10:51:26.786Z,962.75
2018-05-02T10:52:26.723Z,962.75
2018-05-02T10:53:26.716Z,962.74
2018-05-02T10:54:26.637Z,962.76
2018-05-02T10:55:26.595Z,962.78
2018-05-02T10:56:26.590Z,962.76
2018-05-02T10:57:26.515Z,962.76
2018-05-02T10:58:26.468Z,962.75
2018-05-02T10:59:26.457Z,962.73
2018-05-02T11:00:26.372Z,962.74
2018-05-02T11:01:26.333Z,962.73
2018-05-02T11:02:26.282Z,962.72
2018-05-02T11:03:26.254Z,962.68
2018-05-02T11:04:26.236Z,962.72
2018-05-02T11:05:26.191Z,962.70
2018-05-02T11:06:26.118Z,962.69
2018-05-02T11:07:26.073Z,962.68
2018-05-02T11:08:26.109Z,962.67
2018-05-02T11:09:25.978Z,962.65
2018-05-02T11:10:25.980Z,962.60
2018-05-02T11:11:25.893Z,962.59
2018-05-02T11:12:25.846Z,962.55
2018-05-02T11:13:25.807Z,962.53
2018-05-02T11:14:25.768Z,962.53
2018-05-02T11:15:25.747Z,962.52
2018-05-02T11:16:25.716Z,962.56
2018-05-02T11:17:25.740Z,962.53
2018-05-02T11:18:25.583Z,962.50
2018-05-02T11:19:25.539Z,962.51
2018-05-02T11:20:25.497Z,962.47
2018-05-02T11:21:25.487Z,962.45
2018-05-02T11:22:25.408Z,962.46
2018-05-02T11:23:25.360Z,962.41
2018-05-02T11:24:25.335Z,962.43
2018-05-02T11:25:25.275Z,962.43
2018-05-02T11:26:25.269Z,962.40
2018-05-02T11:27:25.195Z,962.40
2018-05-02T11:28:25.192Z,962.41
2018-05-02T11:29:25.106Z,962.40
2018-05-02T11:30:25.055Z,962.39
2018-05-02T11:31:25.070Z,962.35
2018-05-02T11:32:24.973Z,962.35
2018-05-02T11:33:24.929Z,962.34
2018-05-02T11:34:24.878Z,962.34
2018-05-02T11:35:24.843Z,962.34
2018-05-02T11:36:24.826Z,962.35
2018-05-02T11:37:24.755Z,962.32
2018-05-02T11:38:24.771Z,962.35
2018-05-02T11:39:24.699Z,962.28
2018-05-02T11:40:24.621Z,962.29
2018-05-02T11:41:24.575Z,962.27
2018-05-02T11:42:24.528Z,962.22
2018-05-02T11:43:24.528Z,962.22
2018-05-02T11:44:24.448Z,962.24
2018-05-02T11:45:24.401Z,962.21
2018-05-02T11:46:26.456Z,962.21
2018-05-02T11:47:24.318Z,962.20
2018-05-02T11:48:24.348Z,962.21
2018-05-02T11:49:24.226Z,962.23
2018-05-02T11:50:24.184Z,962.18
2018-05-02T11:51:24.137Z,962.16
2018-05-02T11:52:24.113Z,962.12
2018-05-02T11:53:24.160Z,962.15
2018-05-02T11:54:24.062Z,962.10
2018-05-02T11:55:23.964Z,962.13
2018-05-02T11:56:23.943Z,962.13
2018-05-02T11:57:23.915Z,962.16
2018-05-02T11:58:23.840Z,962.19
2018-05-02T11:59:23.848Z,962.17
2018-05-02T12:00:23.754Z,962.17
2018-05-02T12:01:23.713Z,962.11
2018-05-02T12:02:23.671Z,962.13
2018-05-02T12:03:23.617Z,962.11
2018-05-02T12:04:23.658Z,962.13
2018-05-02T12:05:23.561Z,962.09
2018-05-02T12:06:23.487Z,962.12
2018-05-02T12:07:23.445Z,962.07
2018-05-02T12:08:23.405Z,962.06
2018-05-02T12:09:23.880Z,962.07
2018-05-02T12:10:23.332Z,962.05
2018-05-02T12:11:23.307Z,962.05
2018-05-02T12:12:23.231Z,962.05
2018-05-02T12:13:23.197Z,962.02
2018-05-02T12:14:23.146Z,962.00
2018-05-02T12:15:23.137Z,961.95
2018-05-02T12:16:23.104Z,961.98
2018-05-02T12:17:23.033Z,961.99
2018-05-02T12:18:22.976Z,961.97
2018-05-02T12:19:22.934Z,961.95
2018-05-02T12:20:22.884Z,961.97
2018-05-02T12:21:22.880Z,961.94
2018-05-02T12:22:22.807Z,961.94
2018-05-02T12:23:22.757Z,961.93
2018-05-02T12:24:22.751Z,961.97
2018-05-02T12:25:22.677Z,961.98
2018-05-02T12:26:22.626Z,961.98
2018-05-02T12:27:22.593Z,961.95
2018-05-02T12:28:22.581Z,961.97